DAL8277 KATL-KECP
Flight info
| Callsign | DAL8277 |
|---|---|
| Flight time | 0h 55m |
| Altitude | 28000 |
| Route | HAALO3 SARGE RRS |
| Aircraft | A321/M-SBDFGHIRWXYZ/LB1D1 |
Departure
| Time | 2026-05-08 02:56 |
|---|---|
| Airport | Hartsfield Jackson Atlanta International Airport (KATL) |
Arrival
| Time | 2026-05-08 03:51 |
|---|---|
| Airport | Northwest Florida Beaches International Airport (KECP) |
| Time | Latitude | Longitude | Altitude | Speed | Heading |
|---|---|---|---|---|---|
| 2026-05-08 02:23 | 33.63891 | -84.42882 | 1036 ft | 0 kts | 287° |
| 2026-05-08 02:36 | 33.63890 | -84.42880 | 1035 ft | 2 kts | 287° |
| 2026-05-08 02:36 | 33.63882 | -84.42851 | 1035 ft | 4 kts | 295° |
| 2026-05-08 02:36 | 33.63868 | -84.42824 | 1035 ft | 4 kts | 318° |
| 2026-05-08 02:37 | 33.63846 | -84.42810 | 1035 ft | 3 kts | 356° |
| 2026-05-08 02:37 | 33.63842 | -84.42809 | 1035 ft | 0 kts | 0° |
| 2026-05-08 02:40 | 33.63843 | -84.42808 | 1035 ft | 1 kts | 15° |
| 2026-05-08 02:40 | 33.63844 | -84.42800 | 1035 ft | 1 kts | 72° |
| 2026-05-08 02:40 | 33.63840 | -84.42796 | 1035 ft | 1 kts | 125° |
| 2026-05-08 02:41 | 33.63834 | -84.42797 | 1035 ft | 1 kts | 175° |
| 2026-05-08 02:41 | 33.63829 | -84.42797 | 1035 ft | 0 kts | 182° |
| 2026-05-08 02:41 | 33.63826 | -84.42798 | 1035 ft | 2 kts | 187° |
| 2026-05-08 02:41 | 33.63818 | -84.42801 | 1035 ft | 1 kts | 195° |
| 2026-05-08 02:42 | 33.63798 | -84.42807 | 1035 ft | 5 kts | 194° |
| 2026-05-08 02:42 | 33.63785 | -84.42808 | 1035 ft | 0 kts | 181° |
| 2026-05-08 02:46 | 33.63775 | -84.42808 | 1035 ft | 3 kts | 180° |
| 2026-05-08 02:47 | 33.63725 | -84.42808 | 1035 ft | 12 kts | 180° |
| 2026-05-08 02:47 | 33.63666 | -84.42758 | 1036 ft | 10 kts | 110° |
| 2026-05-08 02:47 | 33.63658 | -84.42679 | 1036 ft | 9 kts | 91° |
| 2026-05-08 02:47 | 33.63657 | -84.42613 | 1036 ft | 7 kts | 91° |
| 2026-05-08 02:48 | 33.63656 | -84.42547 | 1036 ft | 9 kts | 90° |
| 2026-05-08 02:48 | 33.63656 | -84.42458 | 1036 ft | 12 kts | 90° |
| 2026-05-08 02:48 | 33.63656 | -84.42351 | 1036 ft | 12 kts | 89° |
| 2026-05-08 02:48 | 33.63656 | -84.42254 | 1036 ft | 11 kts | 92° |
| 2026-05-08 02:49 | 33.63657 | -84.42169 | 1036 ft | 10 kts | 88° |
| 2026-05-08 02:49 | 33.63657 | -84.42061 | 1036 ft | 15 kts | 90° |
| 2026-05-08 02:49 | 33.63656 | -84.41940 | 1035 ft | 14 kts | 92° |
| 2026-05-08 02:49 | 33.63656 | -84.41824 | 1035 ft | 13 kts | 89° |
| 2026-05-08 02:50 | 33.63656 | -84.41719 | 1035 ft | 12 kts | 90° |
| 2026-05-08 02:50 | 33.63656 | -84.41620 | 1035 ft | 13 kts | 89° |
| 2026-05-08 02:50 | 33.63656 | -84.41505 | 1035 ft | 15 kts | 90° |
| 2026-05-08 02:50 | 33.63656 | -84.41369 | 1035 ft | 17 kts | 90° |
| 2026-05-08 02:51 | 33.63654 | -84.41216 | 1035 ft | 19 kts | 88° |
| 2026-05-08 02:51 | 33.63657 | -84.41055 | 1035 ft | 19 kts | 91° |
| 2026-05-08 02:51 | 33.63648 | -84.40942 | 1035 ft | 7 kts | 120° |
| 2026-05-08 02:51 | 33.63625 | -84.40920 | 1035 ft | 6 kts | 154° |
| 2026-05-08 02:52 | 33.63595 | -84.40914 | 1035 ft | 0 kts | 178° |
| 2026-05-08 02:53 | 33.63565 | -84.40913 | 1036 ft | 10 kts | 179° |
| 2026-05-08 02:54 | 33.63498 | -84.40928 | 1036 ft | 9 kts | 217° |
| 2026-05-08 02:54 | 33.63472 | -84.40994 | 1036 ft | 9 kts | 262° |
| 2026-05-08 02:54 | 33.63471 | -84.41014 | 1035 ft | 0 kts | 269° |
| 2026-05-08 02:55 | 33.63473 | -84.41322 | 1035 ft | 73 kts | 270° |
| 2026-05-08 02:55 | 33.63481 | -84.43425 | 1048 ft | 169 kts | 271° |
| 2026-05-08 02:55 | 33.63488 | -84.44863 | 1503 ft | 173 kts | 271° |
| 2026-05-08 02:56 | 33.63480 | -84.46282 | 2113 ft | 172 kts | 274° |
| 2026-05-08 02:56 | 33.63470 | -84.47731 | 2717 ft | 171 kts | 274° |
| 2026-05-08 02:56 | 33.63468 | -84.49196 | 2983 ft | 187 kts | 274° |
| 2026-05-08 02:56 | 33.63470 | -84.50847 | 3118 ft | 209 kts | 273° |
| 2026-05-08 02:57 | 33.63471 | -84.52689 | 3298 ft | 232 kts | 272° |
| 2026-05-08 02:57 | 33.63467 | -84.54670 | 3769 ft | 245 kts | 272° |
| 2026-05-08 02:57 | 33.63464 | -84.56758 | 4485 ft | 253 kts | 271° |
| 2026-05-08 02:57 | 33.63461 | -84.58867 | 5423 ft | 252 kts | 271° |
| 2026-05-08 02:58 | 33.63460 | -84.60963 | 6390 ft | 250 kts | 270° |
| 2026-05-08 02:58 | 33.63436 | -84.63037 | 7276 ft | 249 kts | 265° |
| 2026-05-08 02:58 | 33.62960 | -84.65038 | 8145 ft | 251 kts | 246° |
| 2026-05-08 02:58 | 33.61888 | -84.66719 | 8997 ft | 260 kts | 227° |
| 2026-05-08 02:59 | 33.60355 | -84.67938 | 9724 ft | 269 kts | 218° |
| 2026-05-08 02:59 | 33.58681 | -84.68969 | 9959 ft | 275 kts | 208° |
| 2026-05-08 02:59 | 33.56772 | -84.69441 | 9988 ft | 287 kts | 191° |
| 2026-05-08 02:59 | 33.54736 | -84.69229 | 10002 ft | 297 kts | 179° |
| 2026-05-08 03:00 | 33.52701 | -84.68829 | 10003 ft | 297 kts | 179° |
| 2026-05-08 03:00 | 33.50659 | -84.68433 | 10007 ft | 297 kts | 180° |
| 2026-05-08 03:00 | 33.48617 | -84.68044 | 10008 ft | 297 kts | 180° |
| 2026-05-08 03:00 | 33.46573 | -84.67658 | 10010 ft | 297 kts | 180° |
| 2026-05-08 03:01 | 33.44529 | -84.67274 | 10011 ft | 297 kts | 180° |
| 2026-05-08 03:01 | 33.42515 | -84.66895 | 10010 ft | 297 kts | 180° |
| 2026-05-08 03:01 | 33.40508 | -84.66519 | 10006 ft | 296 kts | 181° |
| 2026-05-08 03:01 | 33.38477 | -84.66142 | 10026 ft | 296 kts | 180° |
| 2026-05-08 03:02 | 33.36440 | -84.65761 | 10028 ft | 296 kts | 180° |
| 2026-05-08 03:02 | 33.34409 | -84.65383 | 10028 ft | 296 kts | 180° |
| 2026-05-08 03:02 | 33.32370 | -84.65005 | 10028 ft | 296 kts | 180° |
| 2026-05-08 03:02 | 33.30335 | -84.64630 | 10027 ft | 295 kts | 180° |
| 2026-05-08 03:03 | 33.28308 | -84.64254 | 10027 ft | 295 kts | 180° |
| 2026-05-08 03:03 | 33.26270 | -84.63875 | 10035 ft | 297 kts | 180° |
| 2026-05-08 03:03 | 33.24158 | -84.63501 | 10246 ft | 319 kts | 180° |
| 2026-05-08 03:03 | 33.21890 | -84.63105 | 10480 ft | 339 kts | 180° |
| 2026-05-08 03:04 | 33.19520 | -84.62674 | 11020 ft | 347 kts | 180° |
| 2026-05-08 03:04 | 33.17117 | -84.62224 | 11662 ft | 353 kts | 180° |
| 2026-05-08 03:04 | 33.14668 | -84.61764 | 12291 ft | 358 kts | 181° |
| 2026-05-08 03:04 | 33.12185 | -84.61299 | 12932 ft | 363 kts | 181° |
| 2026-05-08 03:05 | 33.09672 | -84.60831 | 13570 ft | 368 kts | 182° |
| 2026-05-08 03:05 | 33.07263 | -84.60383 | 14124 ft | 372 kts | 182° |
| 2026-05-08 03:05 | 33.04697 | -84.59908 | 14718 ft | 375 kts | 182° |
| 2026-05-08 03:05 | 33.02116 | -84.59433 | 15352 ft | 376 kts | 182° |
| 2026-05-08 03:06 | 32.99525 | -84.58957 | 16026 ft | 377 kts | 182° |
| 2026-05-08 03:06 | 32.96945 | -84.58739 | 16649 ft | 370 kts | 189° |
| 2026-05-08 03:06 | 32.94360 | -84.58675 | 17283 ft | 372 kts | 189° |
| 2026-05-08 03:06 | 32.91765 | -84.58616 | 17918 ft | 374 kts | 190° |
| 2026-05-08 03:07 | 32.89150 | -84.58560 | 18511 ft | 377 kts | 190° |
| 2026-05-08 03:07 | 32.86520 | -84.58508 | 19002 ft | 379 kts | 190° |
| 2026-05-08 03:07 | 32.83903 | -84.58457 | 19489 ft | 382 kts | 190° |
| 2026-05-08 03:07 | 32.81232 | -84.58403 | 19964 ft | 386 kts | 190° |
| 2026-05-08 03:08 | 32.78536 | -84.58345 | 20427 ft | 389 kts | 190° |
| 2026-05-08 03:08 | 32.75821 | -84.58279 | 20845 ft | 392 kts | 189° |
| 2026-05-08 03:08 | 32.73088 | -84.58210 | 21292 ft | 395 kts | 189° |
| 2026-05-08 03:08 | 32.70330 | -84.58141 | 21746 ft | 398 kts | 189° |
| 2026-05-08 03:09 | 32.67549 | -84.58076 | 22193 ft | 401 kts | 189° |
| 2026-05-08 03:09 | 32.64750 | -84.58014 | 22645 ft | 404 kts | 189° |
| 2026-05-08 03:09 | 32.61931 | -84.57951 | 23080 ft | 407 kts | 189° |
| 2026-05-08 03:09 | 32.59099 | -84.57885 | 23515 ft | 410 kts | 189° |
| 2026-05-08 03:10 | 32.56237 | -84.57820 | 23888 ft | 412 kts | 189° |
| 2026-05-08 03:10 | 32.53349 | -84.57756 | 24252 ft | 415 kts | 190° |
| 2026-05-08 03:10 | 32.50464 | -84.57691 | 24626 ft | 417 kts | 190° |
| 2026-05-08 03:10 | 32.47562 | -84.57623 | 25012 ft | 417 kts | 190° |
| 2026-05-08 03:11 | 32.44656 | -84.57556 | 25433 ft | 418 kts | 190° |
| 2026-05-08 03:11 | 32.41729 | -84.57488 | 25798 ft | 420 kts | 190° |
| 2026-05-08 03:11 | 32.38793 | -84.57423 | 26151 ft | 423 kts | 191° |
| 2026-05-08 03:11 | 32.35844 | -84.57362 | 26502 ft | 425 kts | 191° |
| 2026-05-08 03:12 | 32.32957 | -84.57518 | 26831 ft | 415 kts | 199° |
| 2026-05-08 03:12 | 32.30171 | -84.58222 | 27168 ft | 404 kts | 208° |
| 2026-05-08 03:12 | 32.27599 | -84.59435 | 27498 ft | 394 kts | 217° |
| 2026-05-08 03:12 | 32.25285 | -84.61091 | 27827 ft | 385 kts | 225° |
| 2026-05-08 03:13 | 32.23123 | -84.62963 | 27952 ft | 385 kts | 225° |
| 2026-05-08 03:13 | 32.18890 | -84.66587 | 28008 ft | 371 kts | 225° |
| 2026-05-08 03:14 | 32.14717 | -84.70151 | 28009 ft | 369 kts | 225° |
| 2026-05-08 03:14 | 32.10557 | -84.73706 | 28009 ft | 369 kts | 225° |
| 2026-05-08 03:15 | 32.06406 | -84.77257 | 28009 ft | 369 kts | 225° |
| 2026-05-08 03:15 | 32.04330 | -84.79032 | 27859 ft | 365 kts | 225° |
| 2026-05-08 03:15 | 32.02299 | -84.80756 | 27647 ft | 353 kts | 225° |
| 2026-05-08 03:15 | 32.00342 | -84.82405 | 27538 ft | 340 kts | 225° |
| 2026-05-08 03:16 | 31.98455 | -84.83998 | 27347 ft | 329 kts | 225° |
| 2026-05-08 03:16 | 31.96613 | -84.85565 | 27070 ft | 324 kts | 225° |
| 2026-05-08 03:16 | 31.94794 | -84.87121 | 26823 ft | 322 kts | 225° |
| 2026-05-08 03:16 | 31.92987 | -84.88670 | 26580 ft | 321 kts | 225° |
| 2026-05-08 03:17 | 31.91181 | -84.90215 | 26340 ft | 320 kts | 225° |
| 2026-05-08 03:17 | 31.89385 | -84.91747 | 26102 ft | 318 kts | 225° |
| 2026-05-08 03:17 | 31.87593 | -84.93273 | 25864 ft | 317 kts | 225° |
| 2026-05-08 03:17 | 31.85807 | -84.94792 | 25623 ft | 316 kts | 225° |
| 2026-05-08 03:18 | 31.84031 | -84.96303 | 25407 ft | 315 kts | 225° |
| 2026-05-08 03:18 | 31.82257 | -84.97809 | 25168 ft | 314 kts | 224° |
| 2026-05-08 03:18 | 31.80490 | -84.99305 | 24932 ft | 313 kts | 224° |
| 2026-05-08 03:18 | 31.78729 | -85.00794 | 24709 ft | 312 kts | 224° |
| 2026-05-08 03:19 | 31.76974 | -85.02281 | 24484 ft | 310 kts | 224° |
| 2026-05-08 03:19 | 31.75224 | -85.03765 | 24256 ft | 309 kts | 224° |
| 2026-05-08 03:19 | 31.73483 | -85.05238 | 24091 ft | 308 kts | 225° |
| 2026-05-08 03:19 | 31.71745 | -85.06709 | 24025 ft | 307 kts | 225° |
| 2026-05-08 03:20 | 31.70012 | -85.08177 | 23996 ft | 308 kts | 224° |
| 2026-05-08 03:20 | 31.68259 | -85.09662 | 24023 ft | 312 kts | 223° |
| 2026-05-08 03:20 | 31.66497 | -85.11152 | 24027 ft | 313 kts | 223° |
| 2026-05-08 03:20 | 31.64733 | -85.12641 | 24026 ft | 313 kts | 223° |
| 2026-05-08 03:21 | 31.62959 | -85.14134 | 24021 ft | 313 kts | 223° |
| 2026-05-08 03:21 | 31.61192 | -85.15624 | 24023 ft | 313 kts | 223° |
| 2026-05-08 03:21 | 31.59443 | -85.17098 | 24024 ft | 313 kts | 223° |
| 2026-05-08 03:21 | 31.57651 | -85.18610 | 24024 ft | 313 kts | 223° |
| 2026-05-08 03:22 | 31.55882 | -85.20104 | 24024 ft | 313 kts | 223° |
| 2026-05-08 03:22 | 31.54114 | -85.21594 | 24023 ft | 313 kts | 223° |
| 2026-05-08 03:22 | 31.52364 | -85.23066 | 24023 ft | 314 kts | 223° |
| 2026-05-08 03:22 | 31.50594 | -85.24553 | 24022 ft | 313 kts | 223° |
| 2026-05-08 03:23 | 31.48819 | -85.26047 | 24022 ft | 313 kts | 223° |
| 2026-05-08 03:23 | 31.47054 | -85.27534 | 24021 ft | 313 kts | 223° |
| 2026-05-08 03:23 | 31.45281 | -85.29025 | 24021 ft | 314 kts | 223° |
| 2026-05-08 03:23 | 31.43509 | -85.30510 | 23998 ft | 314 kts | 224° |
| 2026-05-08 03:24 | 31.41720 | -85.32010 | 24050 ft | 319 kts | 224° |
| 2026-05-08 03:24 | 31.39909 | -85.33531 | 24057 ft | 321 kts | 224° |
| 2026-05-08 03:24 | 31.38095 | -85.35051 | 24061 ft | 321 kts | 224° |
| 2026-05-08 03:24 | 31.36281 | -85.36574 | 24063 ft | 321 kts | 224° |
| 2026-05-08 03:25 | 31.34425 | -85.38056 | 24063 ft | 326 kts | 219° |
| 2026-05-08 03:25 | 31.32344 | -85.39198 | 24063 ft | 337 kts | 209° |
| 2026-05-08 03:25 | 31.30037 | -85.39875 | 24063 ft | 349 kts | 198° |
| 2026-05-08 03:25 | 31.27572 | -85.40019 | 24063 ft | 362 kts | 187° |
| 2026-05-08 03:26 | 31.25041 | -85.39569 | 24065 ft | 376 kts | 175° |
| 2026-05-08 03:26 | 31.22545 | -85.38466 | 24059 ft | 391 kts | 162° |
| 2026-05-08 03:26 | 31.20203 | -85.36772 | 24050 ft | 399 kts | 155° |
| 2026-05-08 03:26 | 31.17886 | -85.34977 | 24041 ft | 399 kts | 155° |
| 2026-05-08 03:27 | 31.15566 | -85.33187 | 24007 ft | 399 kts | 155° |
| 2026-05-08 03:27 | 31.13240 | -85.31403 | 24024 ft | 402 kts | 155° |
| 2026-05-08 03:27 | 31.10896 | -85.29608 | 23990 ft | 402 kts | 155° |
| 2026-05-08 03:27 | 31.08560 | -85.27817 | 23959 ft | 402 kts | 155° |
| 2026-05-08 03:28 | 31.06217 | -85.26020 | 23975 ft | 403 kts | 155° |
| 2026-05-08 03:28 | 31.03875 | -85.24226 | 23976 ft | 402 kts | 155° |
| 2026-05-08 03:28 | 31.01539 | -85.22436 | 23962 ft | 402 kts | 155° |
| 2026-05-08 03:28 | 30.99197 | -85.20643 | 23969 ft | 402 kts | 155° |
| 2026-05-08 03:29 | 30.96860 | -85.18853 | 23973 ft | 402 kts | 155° |
| 2026-05-08 03:29 | 30.94519 | -85.17060 | 23963 ft | 402 kts | 155° |
| 2026-05-08 03:29 | 30.92178 | -85.15270 | 23838 ft | 402 kts | 155° |
| 2026-05-08 03:29 | 30.89842 | -85.13483 | 23617 ft | 401 kts | 155° |
| 2026-05-08 03:30 | 30.85198 | -85.09937 | 23077 ft | 395 kts | 155° |
| 2026-05-08 03:30 | 30.80641 | -85.06466 | 22553 ft | 389 kts | 155° |
| 2026-05-08 03:31 | 30.76135 | -85.03033 | 22036 ft | 385 kts | 155° |
| 2026-05-08 03:31 | 30.71707 | -84.99664 | 21530 ft | 380 kts | 155° |
| 2026-05-08 03:32 | 30.69499 | -84.97985 | 21278 ft | 378 kts | 155° |
| 2026-05-08 03:32 | 30.67274 | -84.96299 | 21032 ft | 376 kts | 155° |
| 2026-05-08 03:32 | 30.65084 | -84.94642 | 20784 ft | 375 kts | 155° |
| 2026-05-08 03:32 | 30.62937 | -84.93016 | 20541 ft | 373 kts | 156° |
| 2026-05-08 03:33 | 30.60768 | -84.91378 | 20300 ft | 371 kts | 156° |
| 2026-05-08 03:33 | 30.58613 | -84.89747 | 20051 ft | 369 kts | 156° |
| 2026-05-08 03:33 | 30.56469 | -84.88122 | 19833 ft | 367 kts | 156° |
| 2026-05-08 03:33 | 30.54337 | -84.86506 | 19592 ft | 366 kts | 156° |
| 2026-05-08 03:34 | 30.52215 | -84.84898 | 19361 ft | 364 kts | 156° |
| 2026-05-08 03:34 | 30.50095 | -84.83292 | 19131 ft | 362 kts | 156° |
| 2026-05-08 03:34 | 30.47995 | -84.81704 | 18910 ft | 360 kts | 156° |
| 2026-05-08 03:34 | 30.45895 | -84.80121 | 18682 ft | 358 kts | 157° |
| 2026-05-08 03:35 | 30.43707 | -84.78926 | 18450 ft | 339 kts | 174° |
| 2026-05-08 03:35 | 30.41453 | -84.78489 | 18230 ft | 321 kts | 189° |
| 2026-05-08 03:35 | 30.39286 | -84.78751 | 17974 ft | 306 kts | 203° |
| 2026-05-08 03:35 | 30.37335 | -84.79592 | 17711 ft | 294 kts | 216° |
| 2026-05-08 03:36 | 30.35674 | -84.80901 | 17453 ft | 286 kts | 228° |
| 2026-05-08 03:36 | 30.34349 | -84.82581 | 17196 ft | 280 kts | 239° |
| 2026-05-08 03:36 | 30.33401 | -84.84530 | 16943 ft | 276 kts | 250° |
| 2026-05-08 03:36 | 30.32854 | -84.86625 | 16698 ft | 275 kts | 258° |
| 2026-05-08 03:37 | 30.32423 | -84.88786 | 16449 ft | 276 kts | 258° |
| 2026-05-08 03:37 | 30.31985 | -84.90949 | 16203 ft | 276 kts | 258° |
| 2026-05-08 03:37 | 30.31544 | -84.93116 | 15983 ft | 276 kts | 257° |
| 2026-05-08 03:37 | 30.31105 | -84.95274 | 15679 ft | 276 kts | 258° |
| 2026-05-08 03:38 | 30.30665 | -84.97437 | 15343 ft | 276 kts | 258° |
| 2026-05-08 03:38 | 30.30225 | -84.99602 | 14996 ft | 276 kts | 257° |
| 2026-05-08 03:38 | 30.29784 | -85.01763 | 14672 ft | 277 kts | 257° |
| 2026-05-08 03:38 | 30.29489 | -85.03206 | 14454 ft | 278 kts | 257° |
| 2026-05-08 03:39 | 30.29044 | -85.05375 | 14114 ft | 277 kts | 257° |
| 2026-05-08 03:39 | 30.28600 | -85.07544 | 13770 ft | 277 kts | 257° |
| 2026-05-08 03:39 | 30.28157 | -85.09712 | 13398 ft | 276 kts | 257° |
| 2026-05-08 03:39 | 30.27712 | -85.11880 | 13045 ft | 276 kts | 257° |
| 2026-05-08 03:40 | 30.27271 | -85.14032 | 12692 ft | 275 kts | 257° |
| 2026-05-08 03:40 | 30.26831 | -85.16184 | 12346 ft | 275 kts | 257° |
| 2026-05-08 03:40 | 30.26364 | -85.18448 | 11976 ft | 274 kts | 257° |
| 2026-05-08 03:40 | 30.25925 | -85.20586 | 11623 ft | 273 kts | 258° |
| 2026-05-08 03:41 | 30.25487 | -85.22727 | 11271 ft | 272 kts | 258° |
| 2026-05-08 03:41 | 30.25053 | -85.24855 | 10916 ft | 272 kts | 258° |
| 2026-05-08 03:41 | 30.24617 | -85.26983 | 10559 ft | 271 kts | 258° |
| 2026-05-08 03:41 | 30.24180 | -85.29105 | 10220 ft | 270 kts | 258° |
| 2026-05-08 03:42 | 30.23746 | -85.31207 | 10127 ft | 271 kts | 258° |
| 2026-05-08 03:42 | 30.23307 | -85.33328 | 10037 ft | 271 kts | 258° |
| 2026-05-08 03:42 | 30.22867 | -85.35453 | 9779 ft | 273 kts | 258° |
| 2026-05-08 03:42 | 30.22505 | -85.37206 | 9343 ft | 276 kts | 258° |
| 2026-05-08 03:43 | 30.22216 | -85.38599 | 9180 ft | 271 kts | 258° |
| 2026-05-08 03:43 | 30.21778 | -85.40705 | 8779 ft | 270 kts | 258° |
| 2026-05-08 03:43 | 30.21346 | -85.42793 | 8334 ft | 271 kts | 258° |
| 2026-05-08 03:43 | 30.20910 | -85.44913 | 7904 ft | 271 kts | 258° |
| 2026-05-08 03:44 | 30.20469 | -85.47052 | 7441 ft | 267 kts | 258° |
| 2026-05-08 03:44 | 30.20043 | -85.49109 | 6667 ft | 266 kts | 257° |
| 2026-05-08 03:44 | 30.19610 | -85.51175 | 6011 ft | 262 kts | 257° |
| 2026-05-08 03:44 | 30.19183 | -85.53216 | 5526 ft | 260 kts | 257° |
| 2026-05-08 03:45 | 30.18750 | -85.55293 | 5056 ft | 265 kts | 257° |
| 2026-05-08 03:45 | 30.18321 | -85.57362 | 4617 ft | 265 kts | 257° |
| 2026-05-08 03:45 | 30.18000 | -85.59436 | 4260 ft | 261 kts | 267° |
| 2026-05-08 03:45 | 30.18137 | -85.61501 | 3735 ft | 260 kts | 278° |
| 2026-05-08 03:46 | 30.18414 | -85.63549 | 3336 ft | 252 kts | 278° |
| 2026-05-08 03:46 | 30.18666 | -85.65474 | 3303 ft | 233 kts | 277° |
| 2026-05-08 03:46 | 30.19008 | -85.67231 | 3192 ft | 218 kts | 289° |
| 2026-05-08 03:46 | 30.19666 | -85.68723 | 3120 ft | 197 kts | 297° |
| 2026-05-08 03:47 | 30.20277 | -85.69996 | 3039 ft | 165 kts | 297° |
| 2026-05-08 03:47 | 30.20802 | -85.71096 | 2953 ft | 150 kts | 297° |
| 2026-05-08 03:47 | 30.21336 | -85.72106 | 2827 ft | 145 kts | 304° |
| 2026-05-08 03:47 | 30.21998 | -85.72980 | 2679 ft | 144 kts | 314° |
| 2026-05-08 03:48 | 30.22778 | -85.73708 | 2507 ft | 145 kts | 325° |
| 2026-05-08 03:48 | 30.23659 | -85.74258 | 2340 ft | 144 kts | 335° |
| 2026-05-08 03:48 | 30.24591 | -85.74669 | 2154 ft | 143 kts | 338° |
| 2026-05-08 03:48 | 30.25515 | -85.75074 | 1961 ft | 142 kts | 338° |
| 2026-05-08 03:49 | 30.26433 | -85.75470 | 1783 ft | 140 kts | 339° |
| 2026-05-08 03:49 | 30.27344 | -85.75863 | 1590 ft | 140 kts | 339° |
| 2026-05-08 03:49 | 30.28255 | -85.76257 | 1398 ft | 139 kts | 338° |
| 2026-05-08 03:49 | 30.29151 | -85.76679 | 1203 ft | 139 kts | 335° |
| 2026-05-08 03:50 | 30.30043 | -85.77105 | 1052 ft | 140 kts | 339° |
| 2026-05-08 03:50 | 30.30962 | -85.77474 | 857 ft | 141 kts | 338° |
| 2026-05-08 03:50 | 30.31888 | -85.77860 | 672 ft | 141 kts | 338° |
| 2026-05-08 03:50 | 30.32811 | -85.78251 | 472 ft | 142 kts | 338° |
| 2026-05-08 03:51 | 30.33729 | -85.78635 | 279 ft | 142 kts | 339° |
| 2026-05-08 03:51 | 30.34648 | -85.79034 | 101 ft | 141 kts | 337° |
| 2026-05-08 03:51 | 30.35428 | -85.79395 | 72 ft | 80 kts | 340° |
| 2026-05-08 03:51 | 30.35570 | -85.79475 | 72 ft | 1 kts | 288° |
| 2026-05-08 03:52 | 30.35560 | -85.79542 | 76 ft | 17 kts | 250° |
| 2026-05-08 03:52 | 30.35515 | -85.79678 | 75 ft | 18 kts | 248° |
| 2026-05-08 03:52 | 30.35472 | -85.79803 | 71 ft | 11 kts | 252° |
| 2026-05-08 03:52 | 30.35483 | -85.79864 | 67 ft | 3 kts | 308° |
| 2026-05-08 03:53 | 30.35484 | -85.79865 | 68 ft | 0 kts | 309° |